Date,TemperatureHighF,TemperatureAvgF,TemperatureLowF,DewpointHighF,DewpointAvgF,DewpointLowF,HumidityHigh,HumidityAvg,HumidityLow,PressureMaxIn,PressureMinIn,WindSpeedMaxMPH,WindSpeedAvgMPH,GustSpeedMaxMPH,PrecipitationSumIn
2013-7-1,74.8,71.6,69.1,73.0,70.7,69.0,100,97,93,29.99,29.86,10,2,12,0.60
2013-7-2,83.4,75.9,71.1,77.0,72.7,70.0,98,90,75,30.10,29.99,14,5,16,0.09
2013-7-3,84.9,77.0,70.6,76.0,72.3,69.0,95,85,67,30.17,30.08,12,6,16,0.09
2013-7-4,88.2,79.6,72.1,76.0,73.3,71.0,97,82,62,30.18,30.06,11,5,23,0.00
2013-7-5,90.0,81.1,73.3,77.0,72.9,70.0,92,77,58,30.14,29.99,10,5,15,0.00
2013-7-6,90.1,80.9,74.2,76.0,73.2,71.0,92,78,56,30.05,29.94,8,4,14,0.00
2013-7-7,91.7,81.2,73.4,78.0,74.1,67.0,94,80,60,29.98,29.84,13,3,14,0.00
2013-7-8,87.7,76.0,65.9,74.0,69.0,65.0,96,79,61,29.97,29.88,10,4,15,0.59
2013-7-9,86.6,74.1,64.8,76.0,70.0,64.0,99,87,64,30.03,29.93,8,1,11,0.01
2013-7-10,83.8,76.2,71.5,78.0,72.9,70.0,95,89,75,29.95,29.72,10,4,17,0.65
2013-7-11,81.8,74.5,66.9,73.0,69.4,63.0,94,84,71,29.88,29.72,6,2,9,0.65
2013-7-12,79.7,71.6,63.2,69.0,64.3,60.0,91,78,65,30.09,29.89,10,2,13,0.00
2013-7-13,78.4,70.9,65.5,74.0,67.8,60.0,95,89,74,30.24,30.09,5,1,9,0.09
2013-7-14,86.8,75.9,70.4,76.0,72.6,70.0,99,90,69,30.28,30.20,4,1,7,0.09
2013-7-24,66.2,61.8,58.8,55.0,53.7,52.0,79,75,68,29.92,29.82,7,3,13,0.00
2013-7-25,69.0,61.6,55.0,62.0,55.5,50.0,87,80,75,30.04,29.93,11,2,15,0.00
2013-7-26,79.4,68.3,60.3,66.0,60.9,57.0,90,78,56,30.01,29.94,11,2,11,0.00
2013-7-27,83.6,71.5,60.3,67.0,62.6,59.0,95,75,50,30.00,29.90,8,3,14,0.00
2013-7-28,76.8,68.7,63.7,72.0,65.6,62.0,96,90,76,29.95,29.87,10,2,14,0.15
2013-7-29,82.5,72.2,65.1,69.0,64.0,56.0,98,78,45,30.05,29.91,10,2,14,0.15
2013-7-30,78.3,67.5,56.2,63.0,58.9,54.0,96,75,51,30.13,30.04,5,1,10,0.00
2013-7-31,80.9,69.0,57.5,65.0,60.0,56.0,96,75,49,30.14,29.98,6,1,8,0.00